Time;durP1;ratioP1;P1;durP2;ratioP2;P2;SDS_P1;SDS_P2;PMS_P1;PMS_P2;Temp;Humidity;BMP_temperature;BMP_pressure;BME280_temperature;BME280_humidity;BME280_pressure;Samples;Min_cycle;Max_cycle;Signal;HPM_P1;HPM_P2
2022/06/08 00:02:34;;;;;;;8.77;3.15;;;;;;;15.72;74.37;99467.69;5032373;28;20064;-58
2022/06/08 00:05:18;;;;;;;;;;;;;;;15.70;74.39;99456.38;5034052;28;20084;-55
2022/06/08 00:08:03;;;;;;;4.57;3.35;;;;;;;15.68;74.49;99460.78;5032536;28;19923;-56
2022/06/08 00:10:47;;;;;;;6.70;3.75;;;;;;;15.68;74.40;99459.03;5032312;28;20099;-56
2022/06/08 00:13:31;;;;;;;5.78;3.38;;;;;;;15.68;74.13;99460.78;5032811;28;20122;-56
2022/06/08 00:16:16;;;;;;;4.20;3.53;;;;;;;15.67;74.45;99454.69;5032683;28;20064;-56
2022/06/08 00:19:00;;;;;;;4.57;3.22;;;;;;;15.66;74.38;99452.09;5032395;28;20111;-56
2022/06/08 00:21:44;;;;;;;4.60;3.05;;;;;;;15.67;74.41;99451.22;5034166;28;20076;-56
2022/06/08 00:24:28;;;;;;;4.57;3.05;;;;;;;15.66;74.20;99446.88;5035904;28;20176;-56
2022/06/08 00:27:12;;;;;;;3.90;2.90;;;;;;;15.67;74.26;99452.09;5037192;28;20611;-56
2022/06/08 00:29:59;;;;;;;7.40;2.92;;;;;;;15.67;74.40;99438.16;5037150;28;20404;-56
2022/06/08 00:32:43;;;;;;;3.97;3.25;;;;;;;15.68;74.34;99439.88;5037288;28;20099;-56
2022/06/08 00:35:28;;;;;;;3.35;2.90;;;;;;;15.68;74.37;99434.66;5037159;28;20095;-55
2022/06/08 00:38:11;;;;;;;3.17;2.80;;;;;;;15.67;74.37;99428.56;5036590;28;20060;-56
2022/06/08 00:41:04;;;;;;;3.50;3.05;;;;;;;15.67;74.36;99423.34;5037120;28;20550;-56
2022/06/08 00:43:49;;;;;;;5.03;3.03;;;;;;;15.67;74.50;99414.63;5037123;28;20134;-56
2022/06/08 00:46:33;;;;;;;;;;;;;;;15.66;74.17;99412.91;5036297;28;20076;-56
2022/06/08 00:49:20;;;;;;;4.05;3.13;;;;;;;15.64;74.24;99412.94;5036653;28;19924;-56
2022/06/08 00:52:05;;;;;;;3.22;2.88;;;;;;;15.64;74.44;99410.34;5037333;28;20115;-56
2022/06/08 00:55:03;;;;;;;3.28;2.65;;;;;;;15.62;74.04;99403.41;5037218;28;20084;-56
2022/06/08 00:58:26;;;;;;;3.60;2.83;;;;;;;15.61;74.33;99409.53;5036040;28;20114;-55
2022/06/08 01:01:11;;;;;;;5.03;2.63;;;;;;;15.61;74.30;99401.69;5036904;28;20102;-56
2022/06/08 01:04:19;;;;;;;3.50;2.60;;;;;;;15.61;74.21;99397.31;5036292;28;20079;-56
2022/06/08 01:07:04;;;;;;;3.33;2.75;;;;;;;15.60;74.42;99390.38;5036668;28;20052;-56
2022/06/08 01:09:48;;;;;;;3.88;2.72;;;;;;;15.59;74.25;99393.00;5036660;28;20064;-56
2022/06/08 01:12:36;;;;;;;3.40;2.50;;;;;;;15.59;74.39;99386.03;5035758;28;20045;-56
2022/06/08 01:15:24;;;;;;;3.92;2.63;;;;;;;15.59;74.28;99379.94;5036166;28;20183;-56
2022/06/08 01:18:09;;;;;;;6.50;2.92;;;;;;;15.58;74.36;99386.06;5035694;28;20053;-56
2022/06/08 01:21:01;;;;;;;4.72;2.72;;;;;;;15.57;74.11;99379.97;5035718;28;20412;-56
2022/06/08 01:23:47;;;;;;;4.15;2.97;;;;;;;15.58;74.15;99383.44;5035610;28;20403;-56
2022/06/08 01:26:53;;;;;;;5.10;3.05;;;;;;;15.56;74.38;99370.44;5035630;28;20096;-56
2022/06/08 01:29:47;;;;;;;7.78;2.85;;;;;;;15.56;74.38;99372.16;5036607;28;20095;-56
2022/06/08 01:32:39;;;;;;;7.68;2.65;;;;;;;15.57;74.25;99363.44;5035148;28;20048;-57
2022/06/08 01:35:39;;;;;;;3.97;2.63;;;;;;;15.57;74.24;99366.03;5034731;28;20057;-56
2022/06/08 01:38:38;;;;;;;8.73;3.42;;;;;;;15.57;74.41;99360.81;5035170;28;20523;-56
2022/06/08 01:41:43;;;;;;;7.85;3.45;;;;;;;15.53;74.36;99353.03;5035134;28;20461;-55
2022/06/08 01:48:20;;;;;;;4.97;2.90;;;;;;;15.55;74.31;99347.81;5035593;28;20083;-56
2022/06/08 01:51:13;;;;;;;4.10;2.47;;;;;;;15.55;74.22;99336.47;5035114;28;20056;-56
2022/06/08 01:54:07;;;;;;;3.72;2.85;;;;;;;15.56;74.21;99330.38;5034816;28;20413;-56
2022/06/08 01:56:56;;;;;;;3.28;2.58;;;;;;;15.57;73.94;99326.88;5034848;28;20528;-56
2022/06/08 01:59:45;;;;;;;3.88;2.83;;;;;;;15.58;74.21;99326.84;5034793;28;20396;-56
2022/06/08 02:02:48;;;;;;;3.85;2.70;;;;;;;15.59;74.07;99322.50;5035296;28;20149;-56
2022/06/08 02:05:53;;;;;;;5.20;3.08;;;;;;;15.60;74.07;99306.78;5035567;28;20044;-56
2022/06/08 02:09:17;;;;;;;3.72;3.00;;;;;;;15.61;74.07;99307.66;5035430;28;20044;-56
2022/06/08 02:12:05;;;;;;;4.53;2.90;;;;;;;15.61;74.17;99298.06;5032185;28;20057;-56
2022/06/08 02:15:02;;;;;;;4.15;2.78;;;;;;;15.61;74.12;99302.44;5034485;28;20098;-56
2022/06/08 02:17:53;;;;;;;4.20;2.55;;;;;;;15.61;74.12;99292.00;5034403;28;20083;-56
2022/06/08 02:21:01;;;;;;;2.63;2.42;;;;;;;15.62;74.04;99285.88;5035076;28;20119;-56
2022/06/08 02:23:51;;;;;;;3.47;2.50;;;;;;;15.61;73.98;99282.41;5034173;28;20495;-56
2022/06/08 02:26:40;;;;;;;3.50;2.50;;;;;;;15.61;74.00;99273.72;5035153;28;20099;-56
2022/06/08 02:29:45;;;;;;;5.38;2.67;;;;;;;15.60;73.83;99272.84;5034191;28;20045;-56
2022/06/08 02:35:54;;;;;;;3.25;2.42;;;;;;;15.60;74.01;99265.00;5035309;28;20056;-56
2022/06/08 02:38:43;;;;;;;6.82;2.45;;;;;;;15.61;73.98;99263.25;5033988;28;20068;-56
2022/06/08 02:41:31;;;;;;;7.10;2.83;;;;;;;15.60;73.92;99261.53;5033816;28;20052;-56
2022/06/08 02:44:21;;;;;;;5.22;2.58;;;;;;;15.60;73.77;99253.72;5033892;28;20439;-56
2022/06/08 02:47:15;;;;;;;3.05;2.20;;;;;;;15.58;73.91;99255.47;5033085;28;20104;-56
2022/06/08 02:50:01;;;;;;;4.43;2.65;;;;;;;15.58;73.56;99260.69;5033791;28;20056;-56
2022/06/08 02:52:47;;;;;;;3.05;2.10;;;;;;;15.54;73.73;99254.69;5033741;28;20179;-56
2022/06/08 02:55:45;;;;;;;2.15;1.95;;;;;;;15.53;73.90;99258.19;5034671;28;20512;-56
2022/06/08 02:58:39;;;;;;;3.55;2.45;;;;;;;15.53;73.83;99259.03;5033445;28;20425;-56
2022/06/08 03:01:36;;;;;;;5.20;3.05;;;;;;;15.50;73.80;99253.00;5033917;28;20052;-55
2022/06/08 03:04:42;;;;;;;3.65;2.47;;;;;;;15.47;73.70;99261.75;5033861;28;20389;-54
2022/06/08 03:07:51;;;;;;;2.55;2.10;;;;;;;15.47;73.66;99253.91;5033526;28;20095;-55
2022/06/08 03:10:40;;;;;;;2.85;2.00;;;;;;;15.45;73.75;99250.47;5033278;28;20558;-55
2022/06/08 03:13:29;;;;;;;3.28;1.90;;;;;;;15.43;73.72;99254.84;5033778;28;20526;-54
2022/06/08 03:16:25;;;;;;;5.15;1.95;;;;;;;15.43;73.63;99257.47;5033790;28;20068;-54
2022/06/08 03:19:09;;;;;;;2.28;2.00;;;;;;;15.42;73.82;99255.75;5033041;28;20056;-55
2022/06/08 03:21:56;;;;;;;2.17;1.83;;;;;;;15.41;73.77;99250.56;5033927;28;20056;-54
2022/06/08 03:24:40;;;;;;;2.22;1.77;;;;;;;15.41;73.84;99256.63;5033510;28;20149;-55
2022/06/08 03:27:27;;;;;;;2.92;1.83;;;;;;;15.41;73.76;99245.34;5034078;28;20520;-55
2022/06/08 03:30:14;;;;;;;1.85;1.70;;;;;;;15.39;73.71;99253.16;5033577;28;20088;-55
2022/06/08 03:32:57;;;;;;;3.45;2.08;;;;;;;15.39;73.78;99247.94;5033636;28;20091;-54
2022/06/08 03:35:47;;;;;;;3.13;1.90;;;;;;;15.38;73.75;99247.09;5034301;28;20079;-55
2022/06/08 03:38:31;;;;;;;2.85;2.13;;;;;;;15.38;73.90;99249.72;5033001;28;20183;-55
2022/06/08 03:41:18;;;;;;;;;;;;;;;15.35;73.82;99243.66;5034063;28;20044;-54
2022/06/08 03:44:04;;;;;;;3.10;2.25;;;;;;;15.33;73.75;99235.00;5033638;28;19959;-55
2022/06/08 03:47:02;;;;;;;3.70;2.22;;;;;;;15.33;73.85;99246.31;5032903;28;20548;-56
2022/06/08 03:49:48;;;;;;;2.65;2.20;;;;;;;15.33;73.93;99241.09;5032849;28;20103;-54
2022/06/08 03:52:37;;;;;;;4.65;2.30;;;;;;;15.31;73.81;99235.03;5032577;28;20488;-54
2022/06/08 03:55:32;;;;;;;3.03;2.35;;;;;;;15.32;73.87;99231.53;5033238;28;20547;-54
2022/06/08 03:58:17;;;;;;;5.22;2.40;;;;;;;15.31;73.94;99227.19;5033609;28;20099;-55
2022/06/08 04:01:03;;;;;;;4.18;2.88;;;;;;;15.31;73.90;99226.34;5032935;28;20405;-55
2022/06/08 04:03:54;;;;;;;4.28;2.50;;;;;;;15.32;73.86;99228.06;5032698;28;20076;-54
2022/06/08 04:06:42;;;;;;;5.22;2.30;;;;;;;15.31;73.93;99221.13;5032520;28;20099;-56
2022/06/08 04:09:29;;;;;;;5.03;2.42;;;;;;;15.31;73.94;99227.19;5011957;28;20301;-56
2022/06/08 04:12:13;;;;;;;;;;;;;;;15.29;73.81;99228.97;5013835;28;20165;-56
2022/06/08 04:15:00;;;;;;;6.03;2.75;;;;;;;15.28;74.03;99229.00;5013782;28;19921;-56
2022/06/08 04:17:47;;;;;;;5.30;2.38;;;;;;;15.29;74.03;99222.88;5013423;28;20057;-57
2022/06/08 04:20:36;;;;;;;2.72;2.28;;;;;;;15.29;74.05;99230.72;5013843;28;20099;-56
2022/06/08 04:23:28;;;;;;;7.57;2.45;;;;;;;15.29;73.74;99225.50;5012777;28;20040;-56
2022/06/08 04:26:14;;;;;;;10.63;2.22;;;;;;;15.29;73.88;99220.28;5013850;28;20472;-56
2022/06/08 04:29:04;;;;;;;3.67;2.50;;;;;;;15.29;73.85;99226.34;5012680;28;20045;-54
2022/06/08 04:31:53;;;;;;;5.00;2.50;;;;;;;15.29;73.87;99230.72;5012575;28;20135;-55
2022/06/08 04:34:42;;;;;;;3.70;2.25;;;;;;;15.27;74.02;99233.34;5012767;28;20516;-56
2022/06/08 04:37:29;;;;;;;6.15;2.35;;;;;;;15.27;74.03;99228.13;5012487;28;20198;-56
2022/06/08 04:40:19;;;;;;;2.88;2.13;;;;;;;15.26;74.04;99228.16;5012664;28;20053;-56
2022/06/08 04:43:03;;;;;;;4.00;2.22;;;;;;;15.27;73.98;99229.88;5013778;28;20100;-57
2022/06/08 04:45:47;;;;;;;3.88;2.28;;;;;;;15.26;74.05;99228.16;5012766;28;20045;-56
2022/06/08 04:48:35;;;;;;;4.75;2.80;;;;;;;15.27;74.09;99219.44;5013336;28;20085;-55
2022/06/08 04:51:28;;;;;;;2.35;1.85;;;;;;;15.25;74.06;99219.47;5012612;28;20057;-57
2022/06/08 04:54:12;;;;;;;3.53;2.55;;;;;;;15.26;74.25;99220.31;5013306;28;20168;-54
2022/06/08 04:56:55;;;;;;;3.47;2.33;;;;;;;15.26;73.64;99220.31;5012882;28;20048;-55
2022/06/08 04:59:48;;;;;;;3.42;2.38;;;;;;;15.26;74.20;99207.28;5013059;28;20555;-55
2022/06/08 05:02:48;;;;;;;4.53;2.15;;;;;;;15.25;74.05;99198.59;5012292;28;20076;-55
2022/06/08 05:05:35;;;;;;;4.68;2.10;;;;;;;15.26;74.27;99191.63;5012189;28;20165;-55
2022/06/08 05:08:20;;;;;;;3.35;2.10;;;;;;;15.27;74.13;99182.91;5012315;28;20049;-55
2022/06/08 05:11:05;;;;;;;2.75;2.45;;;;;;;15.26;74.35;99187.25;5015064;28;20053;-55
2022/06/08 05:13:52;;;;;;;3.83;2.55;;;;;;;15.26;74.19;99176.78;5015730;28;20080;-55
2022/06/08 05:16:41;;;;;;;6.05;2.50;;;;;;;15.26;74.29;99186.41;5015888;28;20108;-54
2022/06/08 05:19:25;;;;;;;3.95;2.35;;;;;;;15.28;74.31;99187.22;5016478;28;20088;-56
2022/06/08 05:22:09;;;;;;;5.25;2.67;;;;;;;15.26;74.11;99166.34;5016547;28;20041;-56
2022/06/08 05:24:56;;;;;;;6.15;2.55;;;;;;;15.27;74.25;99169.84;5017113;28;20057;-55
2022/06/08 05:27:45;;;;;;;2.70;2.03;;;;;;;15.28;74.03;99176.78;5015452;28;20045;-55
2022/06/08 05:30:32;;;;;;;6.93;2.58;;;;;;;15.28;74.38;99167.19;5015484;28;20096;-54
2022/06/08 05:33:19;;;;;;;6.15;2.25;;;;;;;15.28;74.42;99175.03;5015579;28;20052;-57
2022/06/08 05:36:04;;;;;;;4.78;2.15;;;;;;;15.29;74.21;99173.28;5015617;28;20061;-56
2022/06/08 05:38:50;;;;;;;4.13;2.78;;;;;;;15.28;74.55;99166.34;5016316;28;20096;-56
2022/06/08 05:41:37;;;;;;;6.45;2.30;;;;;;;15.28;74.22;99161.13;5015570;28;20173;-56
2022/06/08 05:44:26;;;;;;;2.53;2.30;;;;;;;15.29;74.33;99162.84;5015432;28;20605;-55
2022/06/08 05:47:10;;;;;;;3.75;2.03;;;;;;;15.28;74.32;99159.38;5015424;28;20049;-56
2022/06/08 05:49:54;;;;;;;5.38;2.53;;;;;;;15.30;74.46;99170.66;5015911;28;20072;-56
2022/06/08 05:52:38;;;;;;;10.70;2.40;;;;;;;15.28;74.24;99164.59;5015849;28;20080;-56
2022/06/08 05:55:27;;;;;;;;;;;;;;;15.28;74.33;99163.75;5016624;28;20073;-56
2022/06/08 05:58:13;;;;;;;4.30;2.45;;;;;;;15.28;74.42;99153.31;5015184;28;19919;-56
2022/06/08 06:00:57;;;;;;;3.25;2.25;;;;;;;15.28;74.46;99153.31;5014868;28;20077;-56
2022/06/08 06:03:40;;;;;;;4.15;2.53;;;;;;;15.28;74.33;99153.31;5015548;28;20103;-55
2022/06/08 06:06:28;;;;;;;3.38;2.42;;;;;;;15.28;74.39;99158.53;5015837;28;20112;-57
2022/06/08 06:09:14;;;;;;;3.90;2.72;;;;;;;15.29;74.36;99157.63;5014925;28;20091;-56
2022/06/08 06:12:01;;;;;;;4.85;2.83;;;;;;;15.29;74.34;99152.41;5014311;28;20084;-56
2022/06/08 06:14:52;;;;;;;2.60;2.40;;;;;;;15.29;74.62;99150.66;5014529;28;20092;-56
2022/06/08 06:17:39;;;;;;;7.40;2.85;;;;;;;15.29;74.61;99157.63;5015707;28;20104;-56
2022/06/08 06:20:23;;;;;;;4.55;2.28;;;;;;;15.30;74.47;99151.53;5015267;28;20103;-55
2022/06/08 06:23:07;;;;;;;4.30;2.67;;;;;;;15.30;74.48;99156.75;5014363;28;20464;-56
2022/06/08 06:25:52;;;;;;;12.90;3.25;;;;;;;15.30;74.36;99148.91;5014946;28;20444;-56
2022/06/08 06:28:36;;;;;;;14.02;3.42;;;;;;;15.31;74.43;99154.09;5014454;28;20057;-56
2022/06/08 06:31:43;;;;;;;6.80;2.78;;;;;;;15.31;74.50;99145.41;5014942;28;20053;-56
2022/06/08 06:34:30;;;;;;;4.93;3.05;;;;;;;15.31;74.23;99145.41;5015228;28;20095;-56
2022/06/08 06:37:14;;;;;;;7.70;2.65;;;;;;;15.33;74.59;99139.28;5014898;28;20072;-56
2022/06/08 06:39:59;;;;;;;8.65;2.90;;;;;;;15.33;74.55;99149.72;5014773;28;20052;-56
2022/06/08 06:42:43;;;;;;;4.60;2.65;;;;;;;15.34;74.65;99155.78;5014207;28;20048;-56
2022/06/08 06:45:28;;;;;;;7.90;2.97;;;;;;;15.35;74.57;99153.16;5015343;28;20122;-56
2022/06/08 06:48:12;;;;;;;3.72;2.42;;;;;;;15.36;74.78;99151.41;5014242;28;20041;-57
2022/06/08 06:50:56;;;;;;;5.13;2.92;;;;;;;15.36;74.63;99151.41;5014946;28;20121;-56
2022/06/08 06:53:42;;;;;;;5.28;2.50;;;;;;;15.37;74.61;99150.50;5014752;28;20045;-56
2022/06/08 06:56:29;;;;;;;8.10;3.28;;;;;;;15.38;74.87;99147.91;5014518;28;20080;-56
2022/06/08 06:59:13;;;;;;;7.22;3.10;;;;;;;15.40;74.65;99149.63;5014088;28;20076;-56
2022/06/08 07:01:57;;;;;;;6.88;2.63;;;;;;;15.41;74.70;99144.34;5014352;28;20135;-56
2022/06/08 07:04:41;;;;;;;6.75;2.65;;;;;;;15.41;74.63;99154.81;5013824;28;20044;-56
2022/06/08 07:07:25;;;;;;;3.55;2.50;;;;;;;15.43;74.69;99145.19;5014443;28;20088;-54
2022/06/08 07:10:09;;;;;;;9.00;3.25;;;;;;;15.43;74.58;99146.94;5014628;28;20049;-56
2022/06/08 07:12:55;;;;;;;5.63;3.50;;;;;;;15.44;74.69;99143.44;5014588;28;20084;-54
2022/06/08 07:15:39;;;;;;;5.68;3.42;;;;;;;15.46;74.76;99150.38;5013385;28;20045;-56
2022/06/08 07:18:23;;;;;;;13.23;4.20;;;;;;;15.47;74.58;99151.22;5014534;28;20057;-57
2022/06/08 07:21:09;;;;;;;;;;;;;;;15.47;74.65;99143.38;5015023;28;20125;-56
2022/06/08 07:23:54;;;;;;;8.00;3.53;;;;;;;15.46;74.67;99137.31;5013674;28;20048;-56
2022/06/08 07:26:39;;;;;;;8.13;3.30;;;;;;;15.48;74.87;99142.50;5013757;28;20049;-56
2022/06/08 07:29:23;;;;;;;7.13;3.08;;;;;;;15.50;74.80;99136.34;5014188;28;20567;-56
2022/06/08 07:32:07;;;;;;;7.85;3.22;;;;;;;15.51;74.73;99134.59;5014264;28;20095;-56
2022/06/08 07:34:51;;;;;;;;;;;;;;;15.50;74.89;99135.50;5014080;28;20080;-56
2022/06/08 07:37:35;;;;;;;16.05;3.95;;;;;;;15.50;74.95;99138.94;5014144;28;19920;-56
2022/06/08 07:40:19;;;;;;;11.88;3.92;;;;;;;15.52;74.92;99131.09;5013751;28;20119;-56
2022/06/08 07:43:05;;;;;;;8.90;3.75;;;;;;;15.53;74.99;99133.69;5013427;28;20393;-56
2022/06/08 07:45:50;;;;;;;5.78;3.65;;;;;;;15.55;74.93;99133.66;5014158;28;20124;-56
2022/06/08 07:51:46;;;;;;;10.00;3.85;;;;;;;15.57;74.96;99128.41;5013895;28;20544;-56
2022/06/08 07:54:37;;;;;;;15.05;4.10;;;;;;;15.57;74.77;99125.78;5013391;28;20076;-56
2022/06/08 07:57:29;;;;;;;17.65;4.53;;;;;;;15.56;74.79;99124.94;5013410;28;20122;-56
2022/06/08 08:00:15;;;;;;;11.50;3.60;;;;;;;15.57;74.96;99133.63;5013779;28;20160;-56
2022/06/08 08:02:59;;;;;;;12.15;4.18;;;;;;;15.57;74.67;99128.41;5012274;28;20413;-56
2022/06/08 08:05:46;;;;;;;9.43;3.60;;;;;;;15.57;74.82;99124.03;5013876;28;20509;-56
2022/06/08 08:08:30;;;;;;;9.50;3.55;;;;;;;15.58;74.81;99120.53;5013845;28;20249;-56
2022/06/08 08:11:14;;;;;;;14.48;3.63;;;;;;;15.58;74.84;99125.75;5014051;28;20238;-56
2022/06/08 08:14:00;;;;;;;11.50;4.40;;;;;;;15.59;74.74;99132.69;5013721;28;20049;-57
2022/06/08 08:16:48;;;;;;;9.23;3.25;;;;;;;15.58;74.77;99127.50;5012449;28;20066;-56
2022/06/08 08:19:32;;;;;;;14.70;4.80;;;;;;;15.59;74.72;99129.25;5013673;28;20129;-56
2022/06/08 08:22:19;;;;;;;8.77;4.20;;;;;;;15.58;75.05;99123.13;5013459;28;20532;-56
2022/06/08 08:25:03;;;;;;;7.80;3.47;;;;;;;15.60;74.82;99125.75;5013111;28;20056;-56
2022/06/08 08:27:47;;;;;;;10.57;4.10;;;;;;;15.60;74.91;99125.75;5013665;28;20115;-56
2022/06/08 08:30:32;;;;;;;13.68;4.03;;;;;;;15.60;74.67;99126.59;5012889;28;20100;-56
2022/06/08 08:33:16;;;;;;;9.95;3.83;;;;;;;15.60;74.75;99130.97;5012479;28;20073;-56
2022/06/08 08:36:00;;;;;;;10.05;3.90;;;;;;;15.58;74.80;99128.38;5013615;28;20056;-56
2022/06/08 08:38:46;;;;;;;8.52;3.80;;;;;;;15.58;74.80;99135.34;5013752;28;20108;-56
2022/06/08 08:44:42;;;;;;;16.67;3.83;;;;;;;15.57;74.91;99139.69;5014228;28;20049;-56
2022/06/08 08:47:32;;;;;;;12.23;3.90;;;;;;;15.57;75.09;99131.00;5017022;28;20572;-56
2022/06/08 08:51:01;;;;;;;11.23;3.85;;;;;;;15.56;75.06;99137.13;5018413;28;20499;-56
2022/06/08 08:54:16;;;;;;;10.35;3.92;;;;;;;15.55;75.08;99138.00;5015919;28;20052;-56
2022/06/08 08:57:16;;;;;;;12.02;4.60;;;;;;;15.55;75.08;99140.63;5016414;28;20190;-56
2022/06/08 09:00:22;;;;;;;13.30;3.83;;;;;;;15.53;75.22;99138.91;5016132;28;20524;-56
2022/06/08 09:03:34;;;;;;;17.45;4.47;;;;;;;15.51;75.11;99135.44;5017056;28;20108;-55
2022/06/08 09:06:22;;;;;;;18.23;3.50;;;;;;;15.51;75.41;99138.06;5016027;28;20060;-56
2022/06/08 09:09:14;;;;;;;17.05;4.03;;;;;;;15.52;75.33;99145.00;5015852;28;20532;-55
2022/06/08 09:11:58;;;;;;;22.00;4.72;;;;;;;15.51;75.41;99139.81;5015987;28;20049;-56
2022/06/08 09:14:59;;;;;;;14.02;3.67;;;;;;;15.51;75.25;99151.13;5016349;28;20122;-56
2022/06/08 09:17:56;;;;;;;14.07;4.70;;;;;;;15.50;75.50;99144.19;5016711;28;20067;-56
2022/06/08 09:20:41;;;;;;;10.07;3.70;;;;;;;15.51;75.61;99145.91;5015788;28;20181;-56
2022/06/08 09:23:39;;;;;;;13.60;4.85;;;;;;;15.51;75.39;99143.28;5016019;28;20133;-56
2022/06/08 09:26:23;;;;;;;12.95;4.28;;;;;;;15.51;75.56;99129.38;5016028;28;20075;-56
2022/06/08 09:29:12;;;;;;;13.60;4.22;;;;;;;15.51;75.62;99132.00;5016547;28;20052;-56
2022/06/08 09:31:56;;;;;;;10.50;4.53;;;;;;;15.51;75.55;99138.06;5015860;28;20393;-56
2022/06/08 09:34:53;;;;;;;;;;;;;;;15.49;75.58;99133.78;5016942;28;20049;-56
2022/06/08 09:37:37;;;;;;;19.27;4.72;;;;;;;15.48;75.82;99130.31;5015675;28;19921;-56
2022/06/08 09:40:36;;;;;;;;;;;;;;;15.48;75.76;99130.31;5016134;28;20073;-56
2022/06/08 09:43:52;;;;;;;10.15;4.55;;;;;;;15.47;75.92;99133.81;5016101;28;19919;-56
2022/06/08 09:53:17;;;;;;;9.88;4.32;;;;;;;15.48;75.95;99125.09;5016289;28;20096;-56
2022/06/08 09:56:04;;;;;;;12.65;4.75;;;;;;;15.48;75.89;99126.81;5014527;28;20041;-55
2022/06/08 09:59:00;;;;;;;11.50;5.55;;;;;;;15.48;75.91;99124.22;5015656;28;20052;-56
2022/06/08 10:01:50;;;;;;;9.48;4.88;;;;;;;15.49;75.97;99123.31;5015749;28;20168;-56
2022/06/08 10:04:39;;;;;;;12.45;5.00;;;;;;;15.49;76.08;99124.16;5014872;28;20123;-56
2022/06/08 10:07:35;;;;;;;11.38;4.85;;;;;;;15.51;76.22;99118.94;5015866;28;20137;-56
2022/06/08 10:10:34;;;;;;;9.80;4.80;;;;;;;15.49;76.12;99123.31;5015270;28;20133;-56
2022/06/08 10:13:51;;;;;;;7.43;4.13;;;;;;;15.48;76.08;99117.25;5015044;28;20060;-56
2022/06/08 10:16:42;;;;;;;10.23;4.45;;;;;;;15.48;76.12;99106.81;4974646;28;20041;-56
2022/06/08 10:19:36;;;;;;;8.50;4.07;;;;;;;15.49;76.25;99110.28;5014435;28;20049;-56
2022/06/08 10:22:27;;;;;;;10.75;4.20;;;;;;;15.49;76.33;99113.72;5014543;28;20041;-56
2022/06/08 10:25:38;;;;;;;9.98;4.15;;;;;;;15.48;76.26;99109.44;5015400;28;20069;-56
2022/06/08 10:28:28;;;;;;;6.15;3.67;;;;;;;15.48;76.16;99109.44;5014534;28;20592;-56
2022/06/08 10:31:21;;;;;;;13.57;4.45;;;;;;;15.49;76.16;99095.44;5015661;28;20397;-56
2022/06/08 10:34:33;;;;;;;7.15;3.70;;;;;;;15.49;76.24;99105.91;5014205;28;20104;-56
2022/06/08 10:37:22;;;;;;;6.15;3.17;;;;;;;15.48;76.36;99101.59;5014132;28;20533;-55
2022/06/08 10:40:17;;;;;;;9.23;3.90;;;;;;;15.50;76.38;99096.31;5014205;28;20092;-56
2022/06/08 10:43:01;;;;;;;;;;;;;;;15.48;76.36;99091.16;5015005;28;20053;-55
2022/06/08 10:45:53;;;;;;;10.98;4.05;;;;;;;15.47;76.40;99081.59;5015513;28;19948;-56
2022/06/08 10:48:46;;;;;;;8.05;3.47;;;;;;;15.47;76.59;99086.81;5013792;28;20072;-57
2022/06/08 10:51:35;;;;;;;8.75;3.65;;;;;;;15.47;76.56;99081.59;5014208;28;20060;-56
2022/06/08 10:54:55;;;;;;;6.13;3.60;;;;;;;15.48;76.47;99080.72;5014332;28;20056;-54
2022/06/08 10:57:43;;;;;;;6.85;3.88;;;;;;;15.48;76.48;99072.00;5014498;28;20049;-54
2022/06/08 11:00:52;;;;;;;7.78;3.10;;;;;;;15.47;76.59;99076.38;5013541;28;20073;-54
2022/06/08 11:03:39;;;;;;;6.97;3.45;;;;;;;15.48;76.65;99078.09;5013876;28;20734;-55
2022/06/08 11:06:45;;;;;;;9.48;2.95;;;;;;;15.47;76.58;99072.88;5013870;28;20520;-54
2022/06/08 11:09:35;;;;;;;8.63;3.75;;;;;;;15.47;76.74;99062.44;5012870;28;20397;-58
2022/06/08 11:12:34;;;;;;;7.60;3.05;;;;;;;15.46;76.38;99079.00;5013854;28;20069;-55
2022/06/08 11:15:29;;;;;;;4.82;2.70;;;;;;;15.46;76.68;99063.31;5013881;28;20580;-56
2022/06/08 11:18:34;;;;;;;;;;;;;;;15.43;76.50;99072.09;5014825;28;20523;-54
2022/06/08 11:21:23;;;;;;;6.78;2.85;;;;;;;15.43;76.60;99061.66;5014353;28;19920;-55
2022/06/08 11:24:23;;;;;;;5.78;2.42;;;;;;;15.42;76.71;99061.66;5013363;28;20091;-55
2022/06/08 11:27:10;;;;;;;6.30;3.08;;;;;;;15.42;76.68;99052.09;5013404;28;20056;-54
2022/06/08 11:29:59;;;;;;;2.97;2.25;;;;;;;15.42;76.75;99048.59;5013015;28;20044;-54
2022/06/08 11:32:52;;;;;;;4.18;1.95;;;;;;;15.42;76.60;99046.88;5013111;28;20045;-55
2022/06/08 11:35:55;;;;;;;4.40;2.00;;;;;;;15.42;76.52;99049.47;5014442;28;20552;-55
2022/06/08 11:39:38;;;;;;;7.55;2.58;;;;;;;15.38;76.61;99042.59;5014050;28;20061;-58
2022/06/08 11:42:32;;;;;;;5.95;2.72;;;;;;;15.37;76.79;99043.47;5007309;28;20153;-56
2022/06/08 11:45:20;;;;;;;;;;;;;;;15.36;76.70;99045.25;5014508;28;20077;-56
2022/06/08 11:48:25;;;;;;;5.88;2.65;;;;;;;15.35;76.63;99040.91;5013111;28;19948;-55
2022/06/08 11:51:10;;;;;;;4.55;2.25;;;;;;;15.35;76.57;99040.91;5012744;28;20049;-55
2022/06/08 11:53:54;;;;;;;4.63;2.85;;;;;;;15.37;76.75;99038.25;5013671;28;20049;-55
2022/06/08 11:56:59;;;;;;;7.13;3.30;;;;;;;15.38;76.69;99034.75;5013838;28;20048;-54
2022/06/08 11:59:49;;;;;;;5.63;3.30;;;;;;;15.39;77.02;99039.09;5013181;28;20076;-55
2022/06/08 12:02:38;;;;;;;8.45;3.75;;;;;;;15.40;77.17;99046.03;5013864;28;20060;-54
2022/06/08 12:05:25;;;;;;;7.97;3.40;;;;;;;15.41;77.06;99037.31;5013138;28;20045;-54
2022/06/08 12:08:25;;;;;;;8.05;3.83;;;;;;;15.41;77.00;99044.31;5012512;28;20049;-55
2022/06/08 12:11:11;;;;;;;6.13;2.97;;;;;;;15.42;76.98;99032.94;5012750;28;20092;-54
2022/06/08 12:14:00;;;;;;;4.65;2.95;;;;;;;15.40;77.05;99030.38;5013698;28;20527;-56
2022/06/08 12:17:09;;;;;;;6.63;2.88;;;;;;;15.42;77.17;99019.88;5013292;28;20053;-55
2022/06/08 12:20:02;;;;;;;4.60;2.80;;;;;;;15.41;76.86;99029.47;5012695;28;20512;-55
2022/06/08 12:23:01;;;;;;;5.18;2.60;;;;;;;15.41;77.08;99026.88;5013238;28;20057;-54
2022/06/08 12:25:59;;;;;;;6.35;3.20;;;;;;;15.42;77.07;99025.97;5013837;28;20064;-57
2022/06/08 12:28:51;;;;;;;9.05;2.92;;;;;;;15.43;77.12;99026.81;5012308;28;20080;-56
2022/06/08 12:31:43;;;;;;;5.80;2.85;;;;;;;15.42;76.81;99031.22;5012623;28;20085;-55
2022/06/08 12:34:53;;;;;;;4.47;2.97;;;;;;;15.41;77.00;99028.63;5012653;28;20525;-55
2022/06/08 12:37:47;;;;;;;3.90;2.70;;;;;;;15.40;77.15;99025.16;5013787;28;20164;-55
2022/06/08 12:40:34;;;;;;;4.93;2.58;;;;;;;15.40;77.15;99019.94;5012726;28;20084;-55
2022/06/08 12:43:18;;;;;;;7.05;3.40;;;;;;;15.40;77.18;99026.91;5013407;28;20076;-55
2022/06/08 12:46:21;;;;;;;5.65;3.03;;;;;;;15.40;77.17;99026.91;5012325;28;20084;-55
2022/06/08 12:49:26;;;;;;;4.28;3.03;;;;;;;15.38;77.25;99022.59;5012267;28;20473;-54
2022/06/08 12:52:21;;;;;;;5.10;2.72;;;;;;;15.40;77.34;99022.53;5012183;28;20048;-56
2022/06/08 12:55:20;;;;;;;7.10;2.75;;;;;;;15.41;77.32;99024.25;5012398;28;20061;-56
2022/06/08 12:58:04;;;;;;;4.63;3.03;;;;;;;15.41;77.40;99020.81;5012648;28;20100;-57
2022/06/08 13:00:54;;;;;;;6.75;3.22;;;;;;;15.41;77.31;99024.25;5013227;28;20052;-56
2022/06/08 13:03:40;;;;;;;6.18;3.42;;;;;;;15.40;77.46;99025.16;5012487;28;20044;-56
2022/06/08 13:06:24;;;;;;;7.70;3.15;;;;;;;15.42;77.22;99019.88;5013311;28;20555;-56
2022/06/08 13:09:16;;;;;;;4.95;3.00;;;;;;;15.41;77.45;99018.19;5013402;28;20141;-56
2022/06/08 13:12:01;;;;;;;4.40;2.90;;;;;;;15.41;77.42;99013.81;5012152;28;20092;-55
2022/06/08 13:14:44;;;;;;;6.45;2.83;;;;;;;15.40;77.25;99012.09;5012240;28;20612;-56
2022/06/08 13:17:28;;;;;;;7.10;3.53;;;;;;;15.40;77.38;99013.88;5012690;28;20104;-56
2022/06/08 13:20:28;;;;;;;8.55;3.70;;;;;;;15.41;77.58;99018.19;5013095;28;20053;-56
2022/06/08 13:23:14;;;;;;;6.93;3.58;;;;;;;15.42;77.45;99025.09;5012417;28;20109;-56
2022/06/08 13:26:00;;;;;;;5.70;2.50;;;;;;;15.42;77.42;99020.75;5012161;28;20056;-56
2022/06/08 13:28:44;;;;;;;5.75;2.45;;;;;;;15.42;77.40;99028.59;5013077;28;20041;-56
2022/06/08 13:31:37;;;;;;;5.20;2.30;;;;;;;15.42;77.60;99019.88;5013162;28;20421;-56
2022/06/08 13:34:21;;;;;;;5.25;2.55;;;;;;;15.41;77.53;99026.88;5015757;28;20463;-56
2022/06/08 13:37:22;;;;;;;4.63;3.03;;;;;;;15.43;77.53;99019.00;5016785;28;20060;-56
2022/06/08 13:40:11;;;;;;;4.38;2.40;;;;;;;15.42;77.64;99022.50;5015969;28;20412;-56
2022/06/08 13:42:59;;;;;;;3.45;2.38;;;;;;;15.41;77.59;99029.47;5015339;28;20121;-56
2022/06/08 13:45:45;;;;;;;3.33;1.77;;;;;;;15.42;77.53;99019.88;5015225;28;20143;-56